sensor_id;sensor_type;location;lat;lon;timestamp;pressure;altitude;pressure_sealevel;temperature;humidity
72428;BME280;60419;48.880;18.036;2023-04-09T00:00:12;99685.53;;;3.01;83.19
72428;BME280;60419;48.880;18.036;2023-04-09T00:02:58;99689.59;;;3.37;82.62
72428;BME280;60419;48.880;18.036;2023-04-09T00:05:43;99674.09;;;3.90;80.15
72428;BME280;60419;48.880;18.036;2023-04-09T00:08:28;99682.38;;;3.04;82.44
72428;BME280;60419;48.880;18.036;2023-04-09T00:11:14;99688.56;;;3.21;81.91
72428;BME280;60419;48.880;18.036;2023-04-09T00:14:00;99685.22;;;3.81;79.57
72428;BME280;60419;48.880;18.036;2023-04-09T00:16:45;99679.03;;;3.98;78.63
72428;BME280;60419;48.880;18.036;2023-04-09T00:19:30;99684.38;;;3.59;79.95
72428;BME280;60419;48.880;18.036;2023-04-09T00:22:17;99678.22;;;3.97;79.19
72428;BME280;60419;48.880;18.036;2023-04-09T00:25:02;99672.13;;;4.41;77.15
72428;BME280;60419;48.880;18.036;2023-04-09T00:27:48;99680.03;;;4.80;76.36
72428;BME280;60419;48.880;18.036;2023-04-09T00:30:33;99683.03;;;5.05;75.42
72428;BME280;60419;48.880;18.036;2023-04-09T00:33:19;99679.75;;;4.76;75.80
72428;BME280;60419;48.880;18.036;2023-04-09T00:36:05;99674.53;;;4.64;77.10
72428;BME280;60419;48.880;18.036;2023-04-09T00:38:50;99671.91;;;4.69;76.62
72428;BME280;60419;48.880;18.036;2023-04-09T00:41:37;99666.25;;;5.20;75.25
72428;BME280;60419;48.880;18.036;2023-04-09T00:44:23;99683.63;;;5.45;73.42
72428;BME280;60419;48.880;18.036;2023-04-09T00:47:09;99681.34;;;5.64;72.56
72428;BME280;60419;48.880;18.036;2023-04-09T00:49:55;99685.91;;;5.63;72.05
72428;BME280;60419;48.880;18.036;2023-04-09T00:52:41;99693.94;;;5.63;72.39
72428;BME280;60419;48.880;18.036;2023-04-09T00:55:27;99692.72;;;5.44;73.53
72428;BME280;60419;48.880;18.036;2023-04-09T00:58:13;99693.72;;;5.70;72.90
72428;BME280;60419;48.880;18.036;2023-04-09T01:00:58;99691.13;;;4.44;76.53
72428;BME280;60419;48.880;18.036;2023-04-09T01:03:44;99687.66;;;4.66;76.09
72428;BME280;60419;48.880;18.036;2023-04-09T01:06:41;99686.47;;;4.57;77.15
72428;BME280;60419;48.880;18.036;2023-04-09T01:09:36;99688.09;;;4.58;77.38
72428;BME280;60419;48.880;18.036;2023-04-09T01:15:17;99686.84;;;4.65;77.28
72428;BME280;60419;48.880;18.036;2023-04-09T01:21:03;99678.97;;;5.03;75.87
72428;BME280;60419;48.880;18.036;2023-04-09T01:27:01;99690.47;;;5.63;73.97
72428;BME280;60419;48.880;18.036;2023-04-09T01:29:50;99684.28;;;5.62;73.18
72428;BME280;60419;48.880;18.036;2023-04-09T01:32:37;99690.16;;;5.59;73.18
72428;BME280;60419;48.880;18.036;2023-04-09T01:35:24;99690.03;;;5.44;73.58
72428;BME280;60419;48.880;18.036;2023-04-09T01:38:12;99684.56;;;5.01;76.13
72428;BME280;60419;48.880;18.036;2023-04-09T01:40:59;99670.94;;;5.03;75.35
72428;BME280;60419;48.880;18.036;2023-04-09T01:43:45;99692.78;;;5.54;74.76
72428;BME280;60419;48.880;18.036;2023-04-09T01:46:32;99699.59;;;5.67;73.88
72428;BME280;60419;48.880;18.036;2023-04-09T01:49:19;99675.50;;;5.72;72.54
72428;BME280;60419;48.880;18.036;2023-04-09T01:52:06;99689.63;;;5.62;73.38
72428;BME280;60419;48.880;18.036;2023-04-09T01:54:51;99693.53;;;4.90;75.50
72428;BME280;60419;48.880;18.036;2023-04-09T01:57:37;99695.47;;;5.22;75.46
72428;BME280;60419;48.880;18.036;2023-04-09T02:00:23;99689.78;;;4.64;76.74
72428;BME280;60419;48.880;18.036;2023-04-09T02:03:33;99689.38;;;4.55;77.11
72428;BME280;60419;48.880;18.036;2023-04-09T02:06:27;99698.84;;;5.39;74.82
72428;BME280;60419;48.880;18.036;2023-04-09T02:09:17;99690.03;;;5.11;75.07
72428;BME280;60419;48.880;18.036;2023-04-09T02:12:06;99693.38;;;5.24;74.95
72428;BME280;60419;48.880;18.036;2023-04-09T02:14:54;99690.84;;;4.41;78.49
72428;BME280;60419;48.880;18.036;2023-04-09T02:17:41;99693.66;;;3.90;80.20
72428;BME280;60419;48.880;18.036;2023-04-09T02:20:26;99692.06;;;4.33;78.24
72428;BME280;60419;48.880;18.036;2023-04-09T02:23:12;99689.56;;;4.04;79.46
72428;BME280;60419;48.880;18.036;2023-04-09T02:26:00;99686.09;;;3.87;80.63
72428;BME280;60419;48.880;18.036;2023-04-09T02:28:45;99687.47;;;4.07;79.73
72428;BME280;60419;48.880;18.036;2023-04-09T02:31:31;99686.94;;;3.88;80.04
72428;BME280;60419;48.880;18.036;2023-04-09T02:34:16;99686.78;;;3.77;80.50
72428;BME280;60419;48.880;18.036;2023-04-09T02:37:01;99678.53;;;3.28;82.05
72428;BME280;60419;48.880;18.036;2023-04-09T02:39:47;99684.59;;;3.57;81.25
72428;BME280;60419;48.880;18.036;2023-04-09T02:42:32;99685.16;;;3.26;82.49
72428;BME280;60419;48.880;18.036;2023-04-09T02:45:18;99676.91;;;3.44;81.63
72428;BME280;60419;48.880;18.036;2023-04-09T02:48:04;99689.44;;;3.60;81.45
72428;BME280;60419;48.880;18.036;2023-04-09T02:50:49;99689.31;;;3.67;80.74
72428;BME280;60419;48.880;18.036;2023-04-09T02:53:34;99693.34;;;3.53;81.20
72428;BME280;60419;48.880;18.036;2023-04-09T02:56:21;99690.50;;;3.59;82.05
72428;BME280;60419;48.880;18.036;2023-04-09T02:59:07;99697.72;;;3.42;82.29
72428;BME280;60419;48.880;18.036;2023-04-09T03:01:52;99695.22;;;3.52;81.72
72428;BME280;60419;48.880;18.036;2023-04-09T03:04:38;99691.47;;;3.53;82.41
72428;BME280;60419;48.880;18.036;2023-04-09T03:07:23;99692.81;;;3.05;83.19
72428;BME280;60419;48.880;18.036;2023-04-09T03:10:09;99688.00;;;3.36;82.58
72428;BME280;60419;48.880;18.036;2023-04-09T03:12:54;99688.63;;;3.43;82.17
72428;BME280;60419;48.880;18.036;2023-04-09T03:15:40;99688.47;;;3.16;83.64
72428;BME280;60419;48.880;18.036;2023-04-09T03:18:25;99693.25;;;3.31;82.74
72428;BME280;60419;48.880;18.036;2023-04-09T03:21:11;99687.44;;;3.34;82.51
72428;BME280;60419;48.880;18.036;2023-04-09T03:23:56;99669.78;;;2.70;84.35
72428;BME280;60419;48.880;18.036;2023-04-09T03:26:41;99700.16;;;2.98;84.88
72428;BME280;60419;48.880;18.036;2023-04-09T03:29:27;99692.28;;;3.37;83.55
72428;BME280;60419;48.880;18.036;2023-04-09T03:32:12;99698.16;;;3.22;84.11
72428;BME280;60419;48.880;18.036;2023-04-09T03:34:58;99691.47;;;3.36;83.76
72428;BME280;60419;48.880;18.036;2023-04-09T03:37:44;99694.88;;;3.49;83.14
72428;BME280;60419;48.880;18.036;2023-04-09T03:40:30;99694.78;;;3.77;81.87
72428;BME280;60419;48.880;18.036;2023-04-09T03:43:16;99690.25;;;3.61;81.58
72428;BME280;60419;48.880;18.036;2023-04-09T03:46:10;99691.56;;;3.75;81.60
72428;BME280;60419;48.880;18.036;2023-04-09T03:48:56;99695.88;;;3.14;83.54
72428;BME280;60419;48.880;18.036;2023-04-09T03:51:41;99692.59;;;3.74;81.62
72428;BME280;60419;48.880;18.036;2023-04-09T03:54:28;99701.16;;;2.80;83.16
72428;BME280;60419;48.880;18.036;2023-04-09T03:57:14;99700.72;;;2.71;85.18
72428;BME280;60419;48.880;18.036;2023-04-09T04:00:00;99708.72;;;2.71;85.35
72428;BME280;60419;48.880;18.036;2023-04-09T04:02:45;99704.88;;;3.25;83.42
72428;BME280;60419;48.880;18.036;2023-04-09T04:05:30;99706.72;;;2.38;85.95
72428;BME280;60419;48.880;18.036;2023-04-09T04:08:16;99717.41;;;2.79;85.13
72428;BME280;60419;48.880;18.036;2023-04-09T04:11:04;99712.78;;;3.03;83.80
72428;BME280;60419;48.880;18.036;2023-04-09T04:13:50;99719.38;;;3.12;83.55
72428;BME280;60419;48.880;18.036;2023-04-09T04:16:35;99715.44;;;2.86;84.48
72428;BME280;60419;48.880;18.036;2023-04-09T04:19:20;99712.75;;;2.45;85.59
72428;BME280;60419;48.880;18.036;2023-04-09T04:22:06;99715.34;;;2.28;87.77
72428;BME280;60419;48.880;18.036;2023-04-09T04:24:51;99719.88;;;2.16;87.58
72428;BME280;60419;48.880;18.036;2023-04-09T04:27:40;99718.78;;;2.41;86.75
72428;BME280;60419;48.880;18.036;2023-04-09T04:30:26;99728.81;;;2.62;85.92
72428;BME280;60419;48.880;18.036;2023-04-09T04:33:11;99718.56;;;2.31;85.92
72428;BME280;60419;48.880;18.036;2023-04-09T04:36:07;99724.00;;;2.47;85.55
72428;BME280;60419;48.880;18.036;2023-04-09T04:38:53;99727.53;;;2.01;87.86
72428;BME280;60419;48.880;18.036;2023-04-09T04:41:39;99730.63;;;1.62;89.68
72428;BME280;60419;48.880;18.036;2023-04-09T04:44:24;99726.94;;;1.99;88.21
72428;BME280;60419;48.880;18.036;2023-04-09T04:47:09;99734.03;;;2.69;86.78
72428;BME280;60419;48.880;18.036;2023-04-09T04:49:55;99730.31;;;2.99;84.95
72428;BME280;60419;48.880;18.036;2023-04-09T04:52:40;99730.28;;;2.82;85.15
72428;BME280;60419;48.880;18.036;2023-04-09T04:55:25;99734.44;;;2.37;86.46
72428;BME280;60419;48.880;18.036;2023-04-09T04:58:11;99738.88;;;2.32;87.66
72428;BME280;60419;48.880;18.036;2023-04-09T05:00:56;99739.19;;;2.47;86.96
72428;BME280;60419;48.880;18.036;2023-04-09T05:03:42;99730.84;;;3.12;84.70
72428;BME280;60419;48.880;18.036;2023-04-09T05:06:27;99741.84;;;2.87;84.02
72428;BME280;60419;48.880;18.036;2023-04-09T05:09:13;99736.31;;;2.77;84.01
72428;BME280;60419;48.880;18.036;2023-04-09T05:11:59;99738.25;;;2.53;86.44
72428;BME280;60419;48.880;18.036;2023-04-09T05:14:46;99745.72;;;1.69;88.99
72428;BME280;60419;48.880;18.036;2023-04-09T05:17:31;99745.69;;;2.27;87.07
72428;BME280;60419;48.880;18.036;2023-04-09T05:20:17;99747.31;;;2.40;87.69
72428;BME280;60419;48.880;18.036;2023-04-09T05:23:02;99743.47;;;2.88;85.75
72428;BME280;60419;48.880;18.036;2023-04-09T05:25:48;99751.53;;;3.34;83.41
72428;BME280;60419;48.880;18.036;2023-04-09T05:28:34;99747.66;;;3.42;82.54
72428;BME280;60419;48.880;18.036;2023-04-09T05:31:19;99753.16;;;3.69;81.77
72428;BME280;60419;48.880;18.036;2023-04-09T05:34:05;99753.00;;;3.58;80.59
72428;BME280;60419;48.880;18.036;2023-04-09T05:36:50;99750.06;;;2.98;82.23
72428;BME280;60419;48.880;18.036;2023-04-09T05:39:35;99758.47;;;2.14;85.52
72428;BME280;60419;48.880;18.036;2023-04-09T05:42:21;99768.38;;;2.54;84.55
72428;BME280;60419;48.880;18.036;2023-04-09T05:45:07;99766.94;;;3.15;83.70
72428;BME280;60419;48.880;18.036;2023-04-09T05:47:53;99756.66;;;3.52;81.69
72428;BME280;60419;48.880;18.036;2023-04-09T05:50:39;99760.00;;;3.31;80.80
72428;BME280;60419;48.880;18.036;2023-04-09T05:53:24;99774.09;;;1.98;85.38
72428;BME280;60419;48.880;18.036;2023-04-09T05:56:14;99777.63;;;2.75;84.11
72428;BME280;60419;48.880;18.036;2023-04-09T05:58:59;99758.56;;;2.31;84.70
72428;BME280;60419;48.880;18.036;2023-04-09T06:01:45;99773.19;;;3.21;82.79
72428;BME280;60419;48.880;18.036;2023-04-09T06:04:30;99773.88;;;3.45;81.15
72428;BME280;60419;48.880;18.036;2023-04-09T06:07:16;99777.34;;;2.88;81.87
72428;BME280;60419;48.880;18.036;2023-04-09T06:10:01;99771.91;;;2.83;82.53
72428;BME280;60419;48.880;18.036;2023-04-09T06:12:47;99783.03;;;2.91;82.08
72428;BME280;60419;48.880;18.036;2023-04-09T06:15:32;99775.06;;;3.08;82.09
72428;BME280;60419;48.880;18.036;2023-04-09T06:18:18;99780.81;;;3.00;81.27
72428;BME280;60419;48.880;18.036;2023-04-09T06:21:04;99787.63;;;2.44;84.89
72428;BME280;60419;48.880;18.036;2023-04-09T06:23:51;99789.84;;;2.35;83.46
72428;BME280;60419;48.880;18.036;2023-04-09T06:26:37;99778.59;;;2.33;85.13
72428;BME280;60419;48.880;18.036;2023-04-09T06:29:22;99771.50;;;3.03;82.59
72428;BME280;60419;48.880;18.036;2023-04-09T06:32:08;99781.00;;;3.56;80.31
72428;BME280;60419;48.880;18.036;2023-04-09T06:34:53;99780.03;;;3.45;80.07
72428;BME280;60419;48.880;18.036;2023-04-09T06:37:38;99774.38;;;3.13;82.38
72428;BME280;60419;48.880;18.036;2023-04-09T06:40:24;99782.00;;;3.83;80.15
72428;BME280;60419;48.880;18.036;2023-04-09T06:43:10;99791.56;;;2.65;82.84
72428;BME280;60419;48.880;18.036;2023-04-09T06:45:56;99778.81;;;3.53;81.29
72428;BME280;60419;48.880;18.036;2023-04-09T06:48:42;99770.19;;;3.96;78.95
72428;BME280;60419;48.880;18.036;2023-04-09T06:51:28;99778.72;;;4.32;77.42
72428;BME280;60419;48.880;18.036;2023-04-09T06:54:14;99785.19;;;4.53;76.62
72428;BME280;60419;48.880;18.036;2023-04-09T06:56:59;99792.00;;;3.43;79.02
72428;BME280;60419;48.880;18.036;2023-04-09T06:59:45;99787.13;;;3.85;78.77
72428;BME280;60419;48.880;18.036;2023-04-09T07:02:30;99789.91;;;3.16;79.86
72428;BME280;60419;48.880;18.036;2023-04-09T07:05:16;99787.81;;;3.47;79.30
72428;BME280;60419;48.880;18.036;2023-04-09T07:08:01;99793.84;;;3.88;79.14
72428;BME280;60419;48.880;18.036;2023-04-09T07:10:46;99784.69;;;3.67;79.04
72428;BME280;60419;48.880;18.036;2023-04-09T07:13:32;99791.06;;;3.99;78.42
72428;BME280;60419;48.880;18.036;2023-04-09T07:16:17;99793.19;;;3.80;79.34
72428;BME280;60419;48.880;18.036;2023-04-09T07:19:03;99788.19;;;4.79;76.34
72428;BME280;60419;48.880;18.036;2023-04-09T07:21:48;99791.94;;;5.00;74.47
72428;BME280;60419;48.880;18.036;2023-04-09T07:24:33;99795.16;;;5.24;74.55
72428;BME280;60419;48.880;18.036;2023-04-09T07:27:28;99786.09;;;5.30;73.82
72428;BME280;60419;48.880;18.036;2023-04-09T07:30:13;99795.47;;;5.54;73.23
72428;BME280;60419;48.880;18.036;2023-04-09T07:32:59;99793.06;;;4.65;76.65
72428;BME280;60419;48.880;18.036;2023-04-09T07:35:44;99766.81;;;4.84;73.29
72428;BME280;60419;48.880;18.036;2023-04-09T07:38:29;99796.59;;;4.10;77.83
72428;BME280;60419;48.880;18.036;2023-04-09T07:41:15;99798.44;;;4.09;77.25
72428;BME280;60419;48.880;18.036;2023-04-09T07:44:00;99790.88;;;5.01;74.63
72428;BME280;60419;48.880;18.036;2023-04-09T07:46:48;99791.75;;;5.06;73.64
72428;BME280;60419;48.880;18.036;2023-04-09T07:49:35;99787.28;;;6.04;71.91
72428;BME280;60419;48.880;18.036;2023-04-09T07:52:21;99794.50;;;6.35;69.98
72428;BME280;60419;48.880;18.036;2023-04-09T07:55:06;99784.00;;;6.86;70.46
72428;BME280;60419;48.880;18.036;2023-04-09T07:57:52;99799.09;;;5.16;73.68
72428;BME280;60419;48.880;18.036;2023-04-09T08:00:37;99796.75;;;6.16;73.75
72428;BME280;60419;48.880;18.036;2023-04-09T08:03:23;99786.41;;;6.83;69.55
72428;BME280;60419;48.880;18.036;2023-04-09T08:06:08;99789.22;;;6.56;69.34
72428;BME280;60419;48.880;18.036;2023-04-09T08:08:53;99799.88;;;6.93;67.74
72428;BME280;60419;48.880;18.036;2023-04-09T08:11:39;99795.72;;;5.53;71.87
72428;BME280;60419;48.880;18.036;2023-04-09T08:14:24;99792.22;;;6.22;70.88
72428;BME280;60419;48.880;18.036;2023-04-09T08:17:10;99791.72;;;6.73;68.68
72428;BME280;60419;48.880;18.036;2023-04-09T08:19:55;99785.16;;;7.11;68.54
72428;BME280;60419;48.880;18.036;2023-04-09T08:22:41;99785.03;;;8.05;70.61
72428;BME280;60419;48.880;18.036;2023-04-09T08:25:27;99793.78;;;6.55;68.02
72428;BME280;60419;48.880;18.036;2023-04-09T08:28:12;99793.53;;;6.14;68.75
72428;BME280;60419;48.880;18.036;2023-04-09T08:30:58;99790.44;;;6.33;68.78
72428;BME280;60419;48.880;18.036;2023-04-09T08:33:43;99773.03;;;6.35;69.64
72428;BME280;60419;48.880;18.036;2023-04-09T08:36:28;99795.44;;;6.19;68.18
72428;BME280;60419;48.880;18.036;2023-04-09T08:39:15;99793.94;;;6.33;69.12
72428;BME280;60419;48.880;18.036;2023-04-09T08:42:05;99781.91;;;6.41;67.65
72428;BME280;60419;48.880;18.036;2023-04-09T08:44:51;99791.41;;;6.59;68.05
72428;BME280;60419;48.880;18.036;2023-04-09T08:47:37;99796.22;;;6.14;67.70
72428;BME280;60419;48.880;18.036;2023-04-09T08:50:24;99775.78;;;6.08;69.98
72428;BME280;60419;48.880;18.036;2023-04-09T08:53:09;99779.19;;;6.36;69.35
72428;BME280;60419;48.880;18.036;2023-04-09T08:55:56;99791.81;;;6.93;66.58
72428;BME280;60419;48.880;18.036;2023-04-09T08:58:42;99785.72;;;7.28;64.79
72428;BME280;60419;48.880;18.036;2023-04-09T09:01:31;99788.06;;;6.94;66.16
72428;BME280;60419;48.880;18.036;2023-04-09T09:04:17;99784.22;;;7.89;64.42
72428;BME280;60419;48.880;18.036;2023-04-09T09:07:05;99795.00;;;6.80;65.12
72428;BME280;60419;48.880;18.036;2023-04-09T09:09:56;99780.53;;;6.91;65.82
72428;BME280;60419;48.880;18.036;2023-04-09T09:12:43;99789.84;;;7.46;64.33
72428;BME280;60419;48.880;18.036;2023-04-09T09:15:28;99787.44;;;7.91;64.05
72428;BME280;60419;48.880;18.036;2023-04-09T09:18:14;99779.22;;;8.73;61.15
72428;BME280;60419;48.880;18.036;2023-04-09T09:21:09;99774.25;;;9.00;62.01
72428;BME280;60419;48.880;18.036;2023-04-09T09:23:55;99763.97;;;8.42;62.24
72428;BME280;60419;48.880;18.036;2023-04-09T09:26:41;99781.31;;;8.91;61.49
72428;BME280;60419;48.880;18.036;2023-04-09T09:29:27;99782.53;;;9.98;60.98
72428;BME280;60419;48.880;18.036;2023-04-09T09:32:13;99718.38;;;9.16;60.63
72428;BME280;60419;48.880;18.036;2023-04-09T09:35:04;99783.41;;;9.54;60.87
72428;BME280;60419;48.880;18.036;2023-04-09T09:37:59;99784.75;;;9.57;60.08
72428;BME280;60419;48.880;18.036;2023-04-09T09:40:45;99786.78;;;10.04;59.16
72428;BME280;60419;48.880;18.036;2023-04-09T09:43:39;99789.09;;;8.93;58.56
72428;BME280;60419;48.880;18.036;2023-04-09T09:46:25;99781.34;;;9.41;58.45
72428;BME280;60419;48.880;18.036;2023-04-09T09:49:11;99782.41;;;9.79;64.88
72428;BME280;60419;48.880;18.036;2023-04-09T09:51:58;99766.75;;;10.64;51.58
72428;BME280;60419;48.880;18.036;2023-04-09T09:54:46;99750.53;;;10.88;51.15
72428;BME280;60419;48.880;18.036;2023-04-09T09:57:33;99776.66;;;10.73;50.86
72428;BME280;60419;48.880;18.036;2023-04-09T10:00:24;99773.06;;;10.30;52.16
72428;BME280;60419;48.880;18.036;2023-04-09T10:03:13;99773.00;;;10.83;51.02
72428;BME280;60419;48.880;18.036;2023-04-09T10:06:01;99768.34;;;11.13;49.94
72428;BME280;60419;48.880;18.036;2023-04-09T10:08:48;99773.63;;;10.99;49.01
72428;BME280;60419;48.880;18.036;2023-04-09T10:11:35;99766.47;;;10.12;51.12
72428;BME280;60419;48.880;18.036;2023-04-09T10:14:21;99768.88;;;9.84;52.02
72428;BME280;60419;48.880;18.036;2023-04-09T10:17:07;99781.97;;;9.67;54.51
72428;BME280;60419;48.880;18.036;2023-04-09T10:20:00;99767.56;;;9.42;55.27
72428;BME280;60419;48.880;18.036;2023-04-09T10:22:51;99766.31;;;9.69;54.29
72428;BME280;60419;48.880;18.036;2023-04-09T10:25:37;99769.00;;;10.03;53.10
72428;BME280;60419;48.880;18.036;2023-04-09T10:28:22;99768.41;;;9.77;54.60
72428;BME280;60419;48.880;18.036;2023-04-09T10:31:08;99760.47;;;9.57;53.77
72428;BME280;60419;48.880;18.036;2023-04-09T10:33:53;99760.63;;;9.26;55.13
72428;BME280;60419;48.880;18.036;2023-04-09T10:36:54;99757.41;;;9.68;53.88
72428;BME280;60419;48.880;18.036;2023-04-09T10:39:44;99749.63;;;10.25;52.77
72428;BME280;60419;48.880;18.036;2023-04-09T10:42:38;99748.75;;;10.30;49.21
72428;BME280;60419;48.880;18.036;2023-04-09T10:45:38;99747.31;;;9.79;51.49
72428;BME280;60419;48.880;18.036;2023-04-09T10:48:24;99753.47;;;9.90;50.81
72428;BME280;60419;48.880;18.036;2023-04-09T10:51:17;99737.09;;;10.58;48.93
72428;BME280;60419;48.880;18.036;2023-04-09T10:54:05;99753.59;;;10.33;49.11
72428;BME280;60419;48.880;18.036;2023-04-09T10:59:53;99750.59;;;10.58;50.97
72428;BME280;60419;48.880;18.036;2023-04-09T11:02:44;99753.63;;;11.00;50.66
72428;BME280;60419;48.880;18.036;2023-04-09T11:05:35;99741.56;;;11.30;49.94
72428;BME280;60419;48.880;18.036;2023-04-09T11:08:27;99743.28;;;11.26;49.73
72428;BME280;60419;48.880;18.036;2023-04-09T11:11:14;99738.81;;;11.16;51.99
72428;BME280;60419;48.880;18.036;2023-04-09T11:14:00;99744.16;;;11.02;50.29
72428;BME280;60419;48.880;18.036;2023-04-09T11:16:49;99751.34;;;10.40;51.27
72428;BME280;60419;48.880;18.036;2023-04-09T11:19:34;99740.91;;;11.00;50.15
72428;BME280;60419;48.880;18.036;2023-04-09T11:22:20;99749.38;;;11.51;48.73
72428;BME280;60419;48.880;18.036;2023-04-09T11:25:06;99739.78;;;11.25;47.21
72428;BME280;60419;48.880;18.036;2023-04-09T11:27:52;99747.72;;;11.17;49.68
72428;BME280;60419;48.880;18.036;2023-04-09T11:30:37;99744.88;;;11.27;47.74
72428;BME280;60419;48.880;18.036;2023-04-09T11:33:30;99742.97;;;11.09;48.82
72428;BME280;60419;48.880;18.036;2023-04-09T11:36:16;99747.69;;;10.55;51.71
72428;BME280;60419;48.880;18.036;2023-04-09T11:39:02;99759.34;;;11.17;49.56
72428;BME280;60419;48.880;18.036;2023-04-09T11:41:48;99757.78;;;10.92;49.22
72428;BME280;60419;48.880;18.036;2023-04-09T11:44:33;99765.13;;;10.38;48.29
72428;BME280;60419;48.880;18.036;2023-04-09T11:47:19;99767.97;;;9.65;49.03
72428;BME280;60419;48.880;18.036;2023-04-09T11:50:06;99754.94;;;9.77;48.76
72428;BME280;60419;48.880;18.036;2023-04-09T11:52:52;99764.47;;;10.23;48.34
72428;BME280;60419;48.880;18.036;2023-04-09T11:55:37;99767.63;;;12.10;80.29
72428;BME280;60419;48.880;18.036;2023-04-09T11:58:25;99760.50;;;12.75;51.51
72428;BME280;60419;48.880;18.036;2023-04-09T12:01:10;99762.16;;;12.29;47.60
72428;BME280;60419;48.880;18.036;2023-04-09T12:03:56;99768.41;;;11.45;50.92
72428;BME280;60419;48.880;18.036;2023-04-09T12:06:41;99762.13;;;11.31;50.04
72428;BME280;60419;48.880;18.036;2023-04-09T12:09:27;99767.28;;;11.98;48.92
72428;BME280;60419;48.880;18.036;2023-04-09T12:12:17;99750.94;;;12.03;48.24
72428;BME280;60419;48.880;18.036;2023-04-09T12:15:09;99779.72;;;10.86;51.58
72428;BME280;60419;48.880;18.036;2023-04-09T12:17:57;99777.97;;;10.76;52.75
72428;BME280;60419;48.880;18.036;2023-04-09T12:20:43;99769.47;;;10.88;52.51
72428;BME280;60419;48.880;18.036;2023-04-09T12:23:28;99767.59;;;11.45;50.64
72428;BME280;60419;48.880;18.036;2023-04-09T12:26:17;99766.03;;;11.77;52.86
72428;BME280;60419;48.880;18.036;2023-04-09T12:29:02;99772.34;;;12.65;67.41
72428;BME280;60419;48.880;18.036;2023-04-09T12:31:48;99766.22;;;12.87;64.06
72428;BME280;60419;48.880;18.036;2023-04-09T12:34:33;99761.00;;;12.35;47.64
72428;BME280;60419;48.880;18.036;2023-04-09T12:37:19;99753.09;;;12.20;46.42
72428;BME280;60419;48.880;18.036;2023-04-09T12:40:05;99755.84;;;11.55;46.18
72428;BME280;60419;48.880;18.036;2023-04-09T12:42:50;99757.88;;;11.63;46.80
72428;BME280;60419;48.880;18.036;2023-04-09T12:45:36;99743.94;;;12.02;67.91
72428;BME280;60419;48.880;18.036;2023-04-09T12:48:21;99751.84;;;11.66;48.67
72428;BME280;60419;48.880;18.036;2023-04-09T12:51:07;99759.09;;;11.70;56.18
72428;BME280;60419;48.880;18.036;2023-04-09T12:53:53;99752.53;;;11.20;48.58
72428;BME280;60419;48.880;18.036;2023-04-09T12:56:38;99751.97;;;11.23;48.61
72428;BME280;60419;48.880;18.036;2023-04-09T12:59:23;99746.44;;;11.33;47.64
72428;BME280;60419;48.880;18.036;2023-04-09T13:02:09;99748.63;;;11.12;48.80
72428;BME280;60419;48.880;18.036;2023-04-09T13:04:55;99746.75;;;10.89;48.25
72428;BME280;60419;48.880;18.036;2023-04-09T13:07:40;99742.16;;;11.27;47.26
72428;BME280;60419;48.880;18.036;2023-04-09T13:10:29;99747.91;;;10.58;48.89
72428;BME280;60419;48.880;18.036;2023-04-09T13:13:14;99755.47;;;11.04;46.71
72428;BME280;60419;48.880;18.036;2023-04-09T13:16:00;99702.94;;;10.68;47.41
72428;BME280;60419;48.880;18.036;2023-04-09T13:18:46;99741.88;;;11.29;47.57
72428;BME280;60419;48.880;18.036;2023-04-09T13:21:31;99748.50;;;11.55;45.67
72428;BME280;60419;48.880;18.036;2023-04-09T13:24:17;99745.00;;;11.55;44.62
72428;BME280;60419;48.880;18.036;2023-04-09T13:27:04;99741.28;;;11.51;46.17
72428;BME280;60419;48.880;18.036;2023-04-09T13:29:50;99748.88;;;11.67;46.25
72428;BME280;60419;48.880;18.036;2023-04-09T13:32:35;99749.94;;;11.34;45.20
72428;BME280;60419;48.880;18.036;2023-04-09T13:35:21;99750.44;;;11.36;45.95
72428;BME280;60419;48.880;18.036;2023-04-09T13:38:06;99748.78;;;11.73;44.85
72428;BME280;60419;48.880;18.036;2023-04-09T13:40:51;99744.16;;;11.02;45.71
72428;BME280;60419;48.880;18.036;2023-04-09T13:43:37;99746.13;;;10.97;46.13
72428;BME280;60419;48.880;18.036;2023-04-09T13:46:22;99745.66;;;10.90;46.30
72428;BME280;60419;48.880;18.036;2023-04-09T13:49:08;99745.91;;;11.12;45.87
72428;BME280;60419;48.880;18.036;2023-04-09T13:51:53;99752.34;;;10.73;47.09
72428;BME280;60419;48.880;18.036;2023-04-09T13:54:39;99740.69;;;11.54;45.70
72428;BME280;60419;48.880;18.036;2023-04-09T13:57:25;99738.72;;;11.40;46.43
72428;BME280;60419;48.880;18.036;2023-04-09T14:00:11;99738.13;;;11.43;46.07
72428;BME280;60419;48.880;18.036;2023-04-09T14:02:57;99740.34;;;11.41;45.89
72428;BME280;60419;48.880;18.036;2023-04-09T14:05:43;99739.63;;;11.68;44.34
72428;BME280;60419;48.880;18.036;2023-04-09T14:08:29;99738.47;;;11.23;45.15
72428;BME280;60419;48.880;18.036;2023-04-09T14:11:14;99735.59;;;11.52;44.77
72428;BME280;60419;48.880;18.036;2023-04-09T14:14:01;99733.31;;;11.21;46.20
72428;BME280;60419;48.880;18.036;2023-04-09T14:16:46;99709.34;;;11.15;46.14
72428;BME280;60419;48.880;18.036;2023-04-09T14:19:32;99729.88;;;11.35;44.79
72428;BME280;60419;48.880;18.036;2023-04-09T14:22:17;99727.19;;;11.16;46.20
72428;BME280;60419;48.880;18.036;2023-04-09T14:25:03;99729.00;;;11.39;45.65
72428;BME280;60419;48.880;18.036;2023-04-09T14:27:49;99723.53;;;10.88;46.61
72428;BME280;60419;48.880;18.036;2023-04-09T14:30:34;99731.00;;;10.72;47.42
72428;BME280;60419;48.880;18.036;2023-04-09T14:33:20;99721.41;;;11.22;45.07
72428;BME280;60419;48.880;18.036;2023-04-09T14:36:06;99720.00;;;11.25;44.07
72428;BME280;60419;48.880;18.036;2023-04-09T14:38:51;99725.22;;;11.02;44.76
72428;BME280;60419;48.880;18.036;2023-04-09T14:41:36;99718.03;;;11.12;45.20
72428;BME280;60419;48.880;18.036;2023-04-09T14:44:22;99711.00;;;11.81;43.25
72428;BME280;60419;48.880;18.036;2023-04-09T14:47:09;99704.47;;;11.68;42.53
72428;BME280;60419;48.880;18.036;2023-04-09T14:49:55;99713.78;;;11.62;44.01